sensor_id;sensor_type;location;lat;lon;timestamp;pressure;altitude;pressure_sealevel;temperature;humidity
54308;BME280;40208;39.778;2.710;2023-04-08T00:00:33;101418.53;;;13.25;73.01
54308;BME280;40208;39.778;2.710;2023-04-08T00:03:19;101422.06;;;13.05;73.67
54308;BME280;40208;39.778;2.710;2023-04-08T00:06:03;101421.78;;;12.71;73.73
54308;BME280;40208;39.778;2.710;2023-04-08T00:08:48;101422.31;;;12.80;74.52
54308;BME280;40208;39.778;2.710;2023-04-08T00:11:33;101427.84;;;12.75;76.69
54308;BME280;40208;39.778;2.710;2023-04-08T00:14:17;101435.34;;;12.45;78.76
54308;BME280;40208;39.778;2.710;2023-04-08T00:17:02;101434.69;;;12.40;78.12
54308;BME280;40208;39.778;2.710;2023-04-08T00:19:47;101440.97;;;12.17;80.14
54308;BME280;40208;39.778;2.710;2023-04-08T00:22:32;101443.91;;;12.11;81.84
54308;BME280;40208;39.778;2.710;2023-04-08T00:25:16;101451.63;;;11.95;84.46
54308;BME280;40208;39.778;2.710;2023-04-08T00:28:01;101450.25;;;11.84;86.28
54308;BME280;40208;39.778;2.710;2023-04-08T00:30:45;101457.94;;;11.92;88.96
54308;BME280;40208;39.778;2.710;2023-04-08T00:33:30;101453.78;;;11.61;92.41
54308;BME280;40208;39.778;2.710;2023-04-08T00:36:15;101450.44;;;11.56;95.44
54308;BME280;40208;39.778;2.710;2023-04-08T00:39:01;101450.84;;;11.45;95.72
54308;BME280;40208;39.778;2.710;2023-04-08T00:41:47;101460.16;;;11.34;98.07
54308;BME280;40208;39.778;2.710;2023-04-08T00:44:31;101451.91;;;11.18;99.85
54308;BME280;40208;39.778;2.710;2023-04-08T00:47:16;101459.97;;;11.15;99.73
54308;BME280;40208;39.778;2.710;2023-04-08T00:50:00;101467.00;;;10.92;100.00
54308;BME280;40208;39.778;2.710;2023-04-08T00:52:45;101455.09;;;11.02;100.00
54308;BME280;40208;39.778;2.710;2023-04-08T00:55:30;101457.63;;;11.06;100.00
54308;BME280;40208;39.778;2.710;2023-04-08T00:58:15;101461.78;;;10.89;100.00
54308;BME280;40208;39.778;2.710;2023-04-08T01:01:09;101462.72;;;10.63;100.00
54308;BME280;40208;39.778;2.710;2023-04-08T01:07:00;101458.06;;;10.43;100.00
54308;BME280;40208;39.778;2.710;2023-04-08T01:09:56;101456.03;;;10.51;100.00
54308;BME280;40208;39.778;2.710;2023-04-08T01:12:43;101456.13;;;10.48;100.00
54308;BME280;40208;39.778;2.710;2023-04-08T01:15:31;101453.31;;;10.53;100.00
54308;BME280;40208;39.778;2.710;2023-04-08T01:18:18;101453.16;;;10.57;100.00
54308;BME280;40208;39.778;2.710;2023-04-08T01:21:04;101455.44;;;10.42;100.00
54308;BME280;40208;39.778;2.710;2023-04-08T01:26:40;101447.59;;;10.38;100.00
54308;BME280;40208;39.778;2.710;2023-04-08T01:29:26;101441.63;;;10.32;100.00
54308;BME280;40208;39.778;2.710;2023-04-08T01:32:11;101445.06;;;10.07;100.00
54308;BME280;40208;39.778;2.710;2023-04-08T01:34:56;101454.25;;;9.97;100.00
54308;BME280;40208;39.778;2.710;2023-04-08T01:37:41;101445.13;;;9.77;100.00
54308;BME280;40208;39.778;2.710;2023-04-08T01:40:26;101440.06;;;9.70;100.00
54308;BME280;40208;39.778;2.710;2023-04-08T01:43:12;101438.34;;;9.69;100.00
54308;BME280;40208;39.778;2.710;2023-04-08T01:45:58;101444.00;;;9.57;100.00
54308;BME280;40208;39.778;2.710;2023-04-08T01:48:43;101440.41;;;9.59;100.00
54308;BME280;40208;39.778;2.710;2023-04-08T01:51:28;101446.47;;;9.63;100.00
54308;BME280;40208;39.778;2.710;2023-04-08T01:54:14;101437.75;;;9.59;100.00
54308;BME280;40208;39.778;2.710;2023-04-08T01:56:59;101440.13;;;9.39;100.00
54308;BME280;40208;39.778;2.710;2023-04-08T01:59:44;101430.50;;;9.34;100.00
54308;BME280;40208;39.778;2.710;2023-04-08T02:02:31;101433.81;;;9.43;100.00
54308;BME280;40208;39.778;2.710;2023-04-08T02:05:16;101425.41;;;9.58;100.00
54308;BME280;40208;39.778;2.710;2023-04-08T02:08:01;101419.84;;;9.38;100.00
54308;BME280;40208;39.778;2.710;2023-04-08T02:10:45;101421.97;;;9.25;100.00
54308;BME280;40208;39.778;2.710;2023-04-08T02:13:30;101421.44;;;9.13;100.00
54308;BME280;40208;39.778;2.710;2023-04-08T02:16:22;101420.16;;;9.27;100.00
54308;BME280;40208;39.778;2.710;2023-04-08T02:19:19;101420.28;;;9.22;100.00
54308;BME280;40208;39.778;2.710;2023-04-08T02:22:09;101420.38;;;9.19;100.00
54308;BME280;40208;39.778;2.710;2023-04-08T02:24:55;101419.19;;;9.29;100.00
54308;BME280;40208;39.778;2.710;2023-04-08T02:27:41;101431.97;;;9.15;100.00
54308;BME280;40208;39.778;2.710;2023-04-08T02:30:26;101433.88;;;9.10;100.00
54308;BME280;40208;39.778;2.710;2023-04-08T02:33:11;101429.03;;;8.95;100.00
54308;BME280;40208;39.778;2.710;2023-04-08T02:35:57;101424.75;;;8.90;100.00
54308;BME280;40208;39.778;2.710;2023-04-08T02:38:46;101428.47;;;8.83;100.00
54308;BME280;40208;39.778;2.710;2023-04-08T02:41:30;101424.13;;;8.81;100.00
54308;BME280;40208;39.778;2.710;2023-04-08T02:44:15;101421.16;;;8.91;100.00
54308;BME280;40208;39.778;2.710;2023-04-08T02:46:59;101418.13;;;8.74;100.00
54308;BME280;40208;39.778;2.710;2023-04-08T02:49:44;101424.53;;;8.65;100.00
54308;BME280;40208;39.778;2.710;2023-04-08T02:52:28;101431.09;;;8.51;100.00
54308;BME280;40208;39.778;2.710;2023-04-08T02:55:13;101427.75;;;8.44;100.00
54308;BME280;40208;39.778;2.710;2023-04-08T02:57:57;101421.66;;;8.39;100.00
54308;BME280;40208;39.778;2.710;2023-04-08T03:00:42;101413.81;;;8.36;100.00
54308;BME280;40208;39.778;2.710;2023-04-08T03:03:26;101419.13;;;8.36;100.00
54308;BME280;40208;39.778;2.710;2023-04-08T03:06:12;101416.47;;;8.36;100.00
54308;BME280;40208;39.778;2.710;2023-04-08T03:08:57;101419.28;;;8.28;100.00
54308;BME280;40208;39.778;2.710;2023-04-08T03:11:41;101414.19;;;8.20;100.00
54308;BME280;40208;39.778;2.710;2023-04-08T03:14:27;101418.16;;;8.38;100.00
54308;BME280;40208;39.778;2.710;2023-04-08T03:17:12;101419.38;;;8.25;100.00
54308;BME280;40208;39.778;2.710;2023-04-08T03:19:57;101423.81;;;8.23;100.00
54308;BME280;40208;39.778;2.710;2023-04-08T03:22:41;101409.22;;;8.08;100.00
54308;BME280;40208;39.778;2.710;2023-04-08T03:25:26;101407.66;;;7.99;100.00
54308;BME280;40208;39.778;2.710;2023-04-08T03:28:12;101407.53;;;8.05;100.00
54308;BME280;40208;39.778;2.710;2023-04-08T03:30:56;101398.09;;;7.95;100.00
54308;BME280;40208;39.778;2.710;2023-04-08T03:33:41;101409.41;;;8.00;100.00
54308;BME280;40208;39.778;2.710;2023-04-08T03:36:25;101399.72;;;8.01;100.00
54308;BME280;40208;39.778;2.710;2023-04-08T03:39:10;101401.63;;;7.94;100.00
54308;BME280;40208;39.778;2.710;2023-04-08T03:41:55;101398.19;;;7.91;100.00
54308;BME280;40208;39.778;2.710;2023-04-08T03:44:40;101388.09;;;7.71;100.00
54308;BME280;40208;39.778;2.710;2023-04-08T03:47:25;101383.72;;;7.70;100.00
54308;BME280;40208;39.778;2.710;2023-04-08T03:50:09;101384.75;;;7.64;100.00
54308;BME280;40208;39.778;2.710;2023-04-08T03:52:54;101382.09;;;7.64;100.00
54308;BME280;40208;39.778;2.710;2023-04-08T03:55:39;101384.75;;;7.64;100.00
54308;BME280;40208;39.778;2.710;2023-04-08T03:58:23;101383.00;;;7.63;100.00
54308;BME280;40208;39.778;2.710;2023-04-08T04:01:08;101376.03;;;7.59;100.00
54308;BME280;40208;39.778;2.710;2023-04-08T04:03:53;101384.22;;;7.48;100.00
54308;BME280;40208;39.778;2.710;2023-04-08T04:06:37;101379.72;;;7.52;100.00
54308;BME280;40208;39.778;2.710;2023-04-08T04:09:22;101377.81;;;7.58;100.00
54308;BME280;40208;39.778;2.710;2023-04-08T04:12:06;101384.13;;;7.53;100.00
54308;BME280;40208;39.778;2.710;2023-04-08T04:14:50;101382.22;;;7.59;100.00
54308;BME280;40208;39.778;2.710;2023-04-08T04:17:35;101385.16;;;7.46;100.00
54308;BME280;40208;39.778;2.710;2023-04-08T04:20:20;101378.22;;;7.40;100.00
54308;BME280;40208;39.778;2.710;2023-04-08T04:23:05;101378.59;;;7.25;100.00
54308;BME280;40208;39.778;2.710;2023-04-08T04:25:50;101383.97;;;7.20;100.00
54308;BME280;40208;39.778;2.710;2023-04-08T04:28:34;101383.00;;;7.24;100.00
54308;BME280;40208;39.778;2.710;2023-04-08T04:31:20;101381.44;;;7.14;100.00
54308;BME280;40208;39.778;2.710;2023-04-08T04:34:05;101375.47;;;7.06;100.00
54308;BME280;40208;39.778;2.710;2023-04-08T04:36:49;101382.72;;;6.94;100.00
54308;BME280;40208;39.778;2.710;2023-04-08T04:39:34;101378.88;;;7.09;100.00
54308;BME280;40208;39.778;2.710;2023-04-08T04:42:19;101383.97;;;7.20;100.00
54308;BME280;40208;39.778;2.710;2023-04-08T04:45:03;101383.13;;;7.16;100.00
54308;BME280;40208;39.778;2.710;2023-04-08T04:47:48;101386.00;;;7.07;100.00
54308;BME280;40208;39.778;2.710;2023-04-08T04:50:32;101384.31;;;7.03;100.00
54308;BME280;40208;39.778;2.710;2023-04-08T04:53:17;101392.22;;;7.03;100.00
54308;BME280;40208;39.778;2.710;2023-04-08T04:56:01;101392.31;;;6.98;100.00
54308;BME280;40208;39.778;2.710;2023-04-08T04:58:46;101404.50;;;7.04;100.00
54308;BME280;40208;39.778;2.710;2023-04-08T05:01:31;101398.41;;;7.02;100.00
54308;BME280;40208;39.778;2.710;2023-04-08T05:04:15;101403.03;;;6.91;100.00
54308;BME280;40208;39.778;2.710;2023-04-08T05:07:00;101399.59;;;6.86;100.00
54308;BME280;40208;39.778;2.710;2023-04-08T05:09:44;101410.91;;;6.92;100.00
54308;BME280;40208;39.778;2.710;2023-04-08T05:12:29;101408.31;;;6.91;100.00
54308;BME280;40208;39.778;2.710;2023-04-08T05:15:14;101406.72;;;6.84;100.00
54308;BME280;40208;39.778;2.710;2023-04-08T05:17:58;101412.78;;;6.86;100.00
54308;BME280;40208;39.778;2.710;2023-04-08T05:20:43;101414.78;;;6.74;100.00
54308;BME280;40208;39.778;2.710;2023-04-08T05:23:28;101420.25;;;6.65;100.00
54308;BME280;40208;39.778;2.710;2023-04-08T05:26:12;101423.06;;;6.54;100.00
54308;BME280;40208;39.778;2.710;2023-04-08T05:28:57;101429.09;;;6.61;100.00
54308;BME280;40208;39.778;2.710;2023-04-08T05:31:41;101431.75;;;6.61;100.00
54308;BME280;40208;39.778;2.710;2023-04-08T05:34:26;101425.59;;;6.61;100.00
54308;BME280;40208;39.778;2.710;2023-04-08T05:37:10;101436.16;;;6.59;100.00
54308;BME280;40208;39.778;2.710;2023-04-08T05:39:55;101435.22;;;6.63;100.00
54308;BME280;40208;39.778;2.710;2023-04-08T05:42:39;101434.38;;;6.59;100.00
54308;BME280;40208;39.778;2.710;2023-04-08T05:45:28;101445.06;;;6.55;100.00
54308;BME280;40208;39.778;2.710;2023-04-08T05:48:12;101443.44;;;6.46;100.00
54308;BME280;40208;39.778;2.710;2023-04-08T05:50:57;101441.69;;;6.45;100.00
54308;BME280;40208;39.778;2.710;2023-04-08T05:53:42;101433.13;;;6.34;100.00
54308;BME280;40208;39.778;2.710;2023-04-08T05:56:26;101435.69;;;6.37;100.00
54308;BME280;40208;39.778;2.710;2023-04-08T05:59:11;101439.09;;;6.44;100.00
54308;BME280;40208;39.778;2.710;2023-04-08T06:01:55;101431.09;;;6.48;100.00
54308;BME280;40208;39.778;2.710;2023-04-08T06:04:40;101427.50;;;6.52;100.00
54308;BME280;40208;39.778;2.710;2023-04-08T06:07:24;101422.22;;;6.52;100.00
54308;BME280;40208;39.778;2.710;2023-04-08T06:10:09;101421.41;;;6.49;100.00
54308;BME280;40208;39.778;2.710;2023-04-08T06:12:54;101428.50;;;6.45;100.00
54308;BME280;40208;39.778;2.710;2023-04-08T06:15:38;101417.09;;;6.45;100.00
54308;BME280;40208;39.778;2.710;2023-04-08T06:18:23;101421.09;;;6.66;100.00
54308;BME280;40208;39.778;2.710;2023-04-08T06:21:07;101420.19;;;6.68;100.00
54308;BME280;40208;39.778;2.710;2023-04-08T06:23:52;101411.00;;;6.88;100.00
54308;BME280;40208;39.778;2.710;2023-04-08T06:26:37;101420.50;;;6.98;100.00
54308;BME280;40208;39.778;2.710;2023-04-08T06:29:21;101421.25;;;7.03;100.00
54308;BME280;40208;39.778;2.710;2023-04-08T06:32:07;101429.94;;;7.10;100.00
54308;BME280;40208;39.778;2.710;2023-04-08T06:34:51;101430.38;;;7.30;100.00
54308;BME280;40208;39.778;2.710;2023-04-08T06:37:35;101422.34;;;7.35;100.00
54308;BME280;40208;39.778;2.710;2023-04-08T06:40:21;101427.41;;;7.46;100.00
54308;BME280;40208;39.778;2.710;2023-04-08T06:43:05;101426.19;;;7.60;100.00
54308;BME280;40208;39.778;2.710;2023-04-08T06:45:51;101428.47;;;7.77;100.00
54308;BME280;40208;39.778;2.710;2023-04-08T06:48:36;101431.81;;;7.84;100.00
54308;BME280;40208;39.778;2.710;2023-04-08T06:51:20;101428.97;;;7.93;100.00
54308;BME280;40208;39.778;2.710;2023-04-08T06:54:05;101422.78;;;7.94;100.00
54308;BME280;40208;39.778;2.710;2023-04-08T06:56:49;101419.81;;;8.06;100.00
54308;BME280;40208;39.778;2.710;2023-04-08T06:59:34;101424.00;;;8.17;100.00
54308;BME280;40208;39.778;2.710;2023-04-08T07:02:18;101421.94;;;8.28;100.00
54308;BME280;40208;39.778;2.710;2023-04-08T07:05:03;101430.44;;;8.42;100.00
54308;BME280;40208;39.778;2.710;2023-04-08T07:07:47;101431.94;;;8.53;100.00
54308;BME280;40208;39.778;2.710;2023-04-08T07:10:33;101426.34;;;8.63;100.00
54308;BME280;40208;39.778;2.710;2023-04-08T07:13:18;101423.41;;;8.74;100.00
54308;BME280;40208;39.778;2.710;2023-04-08T07:16:03;101417.78;;;8.86;100.00
54308;BME280;40208;39.778;2.710;2023-04-08T07:18:47;101418.28;;;8.99;100.00
54308;BME280;40208;39.778;2.710;2023-04-08T07:21:32;101415.97;;;9.18;100.00
54308;BME280;40208;39.778;2.710;2023-04-08T07:24:17;101420.75;;;9.37;100.00
54308;BME280;40208;39.778;2.710;2023-04-08T07:27:01;101411.63;;;9.47;100.00
54308;BME280;40208;39.778;2.710;2023-04-08T07:29:46;101421.00;;;9.59;100.00
54308;BME280;40208;39.778;2.710;2023-04-08T07:32:31;101424.00;;;9.74;100.00
54308;BME280;40208;39.778;2.710;2023-04-08T07:35:15;101426.69;;;10.01;100.00
54308;BME280;40208;39.778;2.710;2023-04-08T07:38:06;101421.91;;;10.12;100.00
54308;BME280;40208;39.778;2.710;2023-04-08T07:40:54;101424.97;;;10.28;100.00
54308;BME280;40208;39.778;2.710;2023-04-08T07:43:39;101433.13;;;10.49;100.00
54308;BME280;40208;39.778;2.710;2023-04-08T07:46:23;101436.78;;;10.70;100.00
54308;BME280;40208;39.778;2.710;2023-04-08T07:49:08;101434.19;;;10.93;100.00
54308;BME280;40208;39.778;2.710;2023-04-08T07:51:52;101440.38;;;11.17;100.00
54308;BME280;40208;39.778;2.710;2023-04-08T07:54:37;101434.72;;;11.50;100.00
54308;BME280;40208;39.778;2.710;2023-04-08T07:57:21;101445.03;;;11.81;100.00
54308;BME280;40208;39.778;2.710;2023-04-08T08:00:06;101461.63;;;12.10;100.00
54308;BME280;40208;39.778;2.710;2023-04-08T08:02:50;101466.34;;;12.25;100.00
54308;BME280;40208;39.778;2.710;2023-04-08T08:05:35;101468.25;;;12.44;100.00
54308;BME280;40208;39.778;2.710;2023-04-08T08:08:20;101469.00;;;12.68;100.00
54308;BME280;40208;39.778;2.710;2023-04-08T08:11:05;101468.78;;;12.93;100.00
54308;BME280;40208;39.778;2.710;2023-04-08T08:13:49;101476.56;;;13.18;100.00
54308;BME280;40208;39.778;2.710;2023-04-08T08:16:34;101474.66;;;13.22;100.00
54308;BME280;40208;39.778;2.710;2023-04-08T08:19:19;101476.91;;;13.31;99.91
54308;BME280;40208;39.778;2.710;2023-04-08T08:22:04;101481.50;;;13.48;94.96
54308;BME280;40208;39.778;2.710;2023-04-08T08:24:48;101479.53;;;13.70;92.97
54308;BME280;40208;39.778;2.710;2023-04-08T08:27:33;101483.59;;;13.79;91.53
54308;BME280;40208;39.778;2.710;2023-04-08T08:30:17;101481.59;;;14.02;92.90
54308;BME280;40208;39.778;2.710;2023-04-08T08:33:03;101469.56;;;14.12;88.58
54308;BME280;40208;39.778;2.710;2023-04-08T08:35:49;101470.16;;;14.36;90.23
54308;BME280;40208;39.778;2.710;2023-04-08T08:38:33;101474.56;;;14.54;88.62
54308;BME280;40208;39.778;2.710;2023-04-08T08:41:18;101475.84;;;14.65;89.39
54308;BME280;40208;39.778;2.710;2023-04-08T08:44:06;101485.50;;;14.84;81.83
54308;BME280;40208;39.778;2.710;2023-04-08T08:46:51;101485.50;;;15.02;86.06
54308;BME280;40208;39.778;2.710;2023-04-08T08:49:36;101491.38;;;15.26;81.91
54308;BME280;40208;39.778;2.710;2023-04-08T08:52:20;101477.69;;;15.48;78.51
54308;BME280;40208;39.778;2.710;2023-04-08T08:55:05;101485.28;;;15.73;77.06
54308;BME280;40208;39.778;2.710;2023-04-08T08:57:50;101489.31;;;15.96;76.19
54308;BME280;40208;39.778;2.710;2023-04-08T09:00:36;101483.97;;;16.12;77.31
54308;BME280;40208;39.778;2.710;2023-04-08T09:03:21;101497.16;;;16.31;76.84
54308;BME280;40208;39.778;2.710;2023-04-08T09:06:06;101495.13;;;16.50;77.58
54308;BME280;40208;39.778;2.710;2023-04-08T09:08:51;101495.25;;;16.63;78.92
54308;BME280;40208;39.778;2.710;2023-04-08T09:11:36;101498.09;;;16.76;78.65
54308;BME280;40208;39.778;2.710;2023-04-08T09:14:22;101498.75;;;16.95;79.55
54308;BME280;40208;39.778;2.710;2023-04-08T09:17:08;101503.00;;;17.14;77.77
54308;BME280;40208;39.778;2.710;2023-04-08T09:20:11;101499.19;;;17.32;77.22
54308;BME280;40208;39.778;2.710;2023-04-08T09:22:57;101498.22;;;17.48;76.13
54308;BME280;40208;39.778;2.710;2023-04-08T09:25:42;101501.72;;;17.63;75.07
54308;BME280;40208;39.778;2.710;2023-04-08T09:28:26;101495.78;;;17.72;74.65
54308;BME280;40208;39.778;2.710;2023-04-08T09:31:21;101499.16;;;17.90;74.24
54308;BME280;40208;39.778;2.710;2023-04-08T09:34:15;101494.06;;;17.99;74.31
54308;BME280;40208;39.778;2.710;2023-04-08T09:37:02;101495.16;;;18.10;73.27
54308;BME280;40208;39.778;2.710;2023-04-08T09:39:46;101492.38;;;18.11;73.52
54308;BME280;40208;39.778;2.710;2023-04-08T09:42:32;101495.63;;;18.16;73.32
54308;BME280;40208;39.778;2.710;2023-04-08T09:45:18;101501.56;;;18.21;73.26
54308;BME280;40208;39.778;2.710;2023-04-08T09:48:11;101500.19;;;18.29;73.83
54308;BME280;40208;39.778;2.710;2023-04-08T09:50:56;101498.13;;;18.47;74.21
54308;BME280;40208;39.778;2.710;2023-04-08T09:53:45;101502.03;;;18.68;75.92
54308;BME280;40208;39.778;2.710;2023-04-08T09:56:34;101503.53;;;18.99;76.15
54308;BME280;40208;39.778;2.710;2023-04-08T09:59:20;101498.72;;;19.17;74.17
54308;BME280;40208;39.778;2.710;2023-04-08T10:02:10;101505.25;;;19.26;73.52
54308;BME280;40208;39.778;2.710;2023-04-08T10:04:57;101501.47;;;19.28;72.81
54308;BME280;40208;39.778;2.710;2023-04-08T10:07:44;101503.44;;;19.39;70.53
54308;BME280;40208;39.778;2.710;2023-04-08T10:10:28;101496.75;;;19.45;69.98
54308;BME280;40208;39.778;2.710;2023-04-08T10:13:13;101495.22;;;19.54;70.30
54308;BME280;40208;39.778;2.710;2023-04-08T10:16:16;101502.13;;;19.58;70.04
54308;BME280;40208;39.778;2.710;2023-04-08T10:19:01;101494.25;;;19.67;70.69
54308;BME280;40208;39.778;2.710;2023-04-08T10:21:46;101497.38;;;19.74;69.70
54308;BME280;40208;39.778;2.710;2023-04-08T10:24:32;101490.34;;;19.84;68.16
54308;BME280;40208;39.778;2.710;2023-04-08T10:27:37;101496.03;;;19.92;68.15
54308;BME280;40208;39.778;2.710;2023-04-08T10:33:17;101493.50;;;20.15;66.63
54308;BME280;40208;39.778;2.710;2023-04-08T10:38:49;101502.59;;;20.25;65.65
54308;BME280;40208;39.778;2.710;2023-04-08T10:41:34;101489.06;;;20.14;65.08
54308;BME280;40208;39.778;2.710;2023-04-08T10:44:19;101506.44;;;20.10;64.81
54308;BME280;40208;39.778;2.710;2023-04-08T10:47:04;101500.31;;;20.08;64.04
54308;BME280;40208;39.778;2.710;2023-04-08T10:49:49;101503.34;;;20.03;66.81
54308;BME280;40208;39.778;2.710;2023-04-08T10:52:34;101500.97;;;19.99;68.19
54308;BME280;40208;39.778;2.710;2023-04-08T10:55:22;101501.22;;;19.83;68.60
54308;BME280;40208;39.778;2.710;2023-04-08T10:58:07;101487.56;;;19.73;69.16
54308;BME280;40208;39.778;2.710;2023-04-08T11:00:52;101501.03;;;19.60;70.91
54308;BME280;40208;39.778;2.710;2023-04-08T11:03:37;101500.53;;;19.55;72.14
54308;BME280;40208;39.778;2.710;2023-04-08T11:06:21;101498.78;;;19.54;70.63
54308;BME280;40208;39.778;2.710;2023-04-08T11:09:06;101503.63;;;19.49;72.21
54308;BME280;40208;39.778;2.710;2023-04-08T11:11:51;101499.75;;;19.40;71.67
54308;BME280;40208;39.778;2.710;2023-04-08T11:14:38;101504.06;;;19.30;69.71
54308;BME280;40208;39.778;2.710;2023-04-08T11:17:23;101503.53;;;19.25;70.68
54308;BME280;40208;39.778;2.710;2023-04-08T11:20:07;101503.41;;;19.26;71.24
54308;BME280;40208;39.778;2.710;2023-04-08T11:22:52;101499.13;;;19.24;72.71
54308;BME280;40208;39.778;2.710;2023-04-08T11:25:36;101497.72;;;19.18;77.15
54308;BME280;40208;39.778;2.710;2023-04-08T11:28:21;101501.28;;;19.19;76.70
54308;BME280;40208;39.778;2.710;2023-04-08T11:31:06;101495.13;;;19.17;76.39
54308;BME280;40208;39.778;2.710;2023-04-08T11:33:52;101495.22;;;19.02;76.51
54308;BME280;40208;39.778;2.710;2023-04-08T11:36:39;101499.97;;;18.99;75.77
54308;BME280;40208;39.778;2.710;2023-04-08T11:39:23;101496.09;;;19.03;78.59
54308;BME280;40208;39.778;2.710;2023-04-08T11:42:07;101504.50;;;18.98;80.97
54308;BME280;40208;39.778;2.710;2023-04-08T11:44:52;101498.25;;;18.98;82.11
54308;BME280;40208;39.778;2.710;2023-04-08T11:47:36;101494.91;;;18.94;86.76
54308;BME280;40208;39.778;2.710;2023-04-08T11:50:25;101492.00;;;18.97;84.38
54308;BME280;40208;39.778;2.710;2023-04-08T11:53:24;101489.00;;;19.02;81.11
54308;BME280;40208;39.778;2.710;2023-04-08T11:56:17;101487.28;;;19.01;82.61
54308;BME280;40208;39.778;2.710;2023-04-08T11:59:02;101489.00;;;19.02;83.65
54308;BME280;40208;39.778;2.710;2023-04-08T12:01:47;101480.84;;;19.03;85.56
54308;BME280;40208;39.778;2.710;2023-04-08T12:04:31;101483.53;;;19.03;84.47
54308;BME280;40208;39.778;2.710;2023-04-08T12:07:17;101478.25;;;19.02;86.87
54308;BME280;40208;39.778;2.710;2023-04-08T12:10:01;101482.97;;;18.98;95.14
54308;BME280;40208;39.778;2.710;2023-04-08T12:12:46;101475.22;;;19.06;93.18
54308;BME280;40208;39.778;2.710;2023-04-08T12:15:31;101472.84;;;19.02;95.99
54308;BME280;40208;39.778;2.710;2023-04-08T12:18:15;101470.06;;;19.03;97.19
54308;BME280;40208;39.778;2.710;2023-04-08T12:21:00;101469.94;;;19.05;98.52
54308;BME280;40208;39.778;2.710;2023-04-08T12:23:45;101474.69;;;19.01;99.88
54308;BME280;40208;39.778;2.710;2023-04-08T12:26:29;101464.38;;;19.08;100.00
54308;BME280;40208;39.778;2.710;2023-04-08T12:29:14;101459.75;;;19.10;100.00
54308;BME280;40208;39.778;2.710;2023-04-08T12:31:58;101459.84;;;19.09;97.66
54308;BME280;40208;39.778;2.710;2023-04-08T12:34:43;101460.59;;;19.11;99.26
54308;BME280;40208;39.778;2.710;2023-04-08T12:37:28;101462.53;;;19.09;100.00
54308;BME280;40208;39.778;2.710;2023-04-08T12:40:13;101460.38;;;19.14;99.32
54308;BME280;40208;39.778;2.710;2023-04-08T12:42:58;101453.06;;;19.16;96.52
54308;BME280;40208;39.778;2.710;2023-04-08T12:45:43;101451.13;;;19.18;100.00
54308;BME280;40208;39.778;2.710;2023-04-08T12:48:27;101447.44;;;19.19;100.00
54308;BME280;40208;39.778;2.710;2023-04-08T12:51:12;101453.78;;;19.31;100.00
54308;BME280;40208;39.778;2.710;2023-04-08T12:53:57;101450.88;;;19.34;100.00
54308;BME280;40208;39.778;2.710;2023-04-08T12:56:42;101448.09;;;19.35;100.00
54308;BME280;40208;39.778;2.710;2023-04-08T12:59:27;101454.44;;;19.34;100.00
54308;BME280;40208;39.778;2.710;2023-04-08T13:02:11;101456.59;;;19.29;100.00
54308;BME280;40208;39.778;2.710;2023-04-08T13:04:56;101448.97;;;19.23;100.00
54308;BME280;40208;39.778;2.710;2023-04-08T13:07:41;101461.88;;;19.18;100.00
54308;BME280;40208;39.778;2.710;2023-04-08T13:10:25;101453.25;;;19.25;100.00
54308;BME280;40208;39.778;2.710;2023-04-08T13:13:10;101452.84;;;19.19;100.00
54308;BME280;40208;39.778;2.710;2023-04-08T13:15:57;101441.13;;;19.20;100.00
54308;BME280;40208;39.778;2.710;2023-04-08T13:18:41;101440.34;;;19.18;100.00
54308;BME280;40208;39.778;2.710;2023-04-08T13:21:26;101445.28;;;19.24;100.00
54308;BME280;40208;39.778;2.710;2023-04-08T13:24:11;101445.28;;;19.24;100.00
54308;BME280;40208;39.778;2.710;2023-04-08T13:26:55;101442.91;;;19.19;100.00
54308;BME280;40208;39.778;2.710;2023-04-08T13:29:40;101435.06;;;19.16;100.00
54308;BME280;40208;39.778;2.710;2023-04-08T13:32:25;101434.66;;;19.10;100.00
54308;BME280;40208;39.778;2.710;2023-04-08T13:35:09;101433.16;;;19.05;100.00
54308;BME280;40208;39.778;2.710;2023-04-08T13:37:54;101428.50;;;19.07;100.00
54308;BME280;40208;39.778;2.710;2023-04-08T13:40:39;101435.63;;;19.09;100.00
54308;BME280;40208;39.778;2.710;2023-04-08T13:43:24;101435.53;;;19.10;100.00
54308;BME280;40208;39.778;2.710;2023-04-08T13:46:08;101436.81;;;19.04;100.00
54308;BME280;40208;39.778;2.710;2023-04-08T13:48:53;101438.53;;;19.05;100.00
54308;BME280;40208;39.778;2.710;2023-04-08T13:51:37;101436.56;;;19.07;100.00
54308;BME280;40208;39.778;2.710;2023-04-08T13:54:22;101432.50;;;19.02;100.00
54308;BME280;40208;39.778;2.710;2023-04-08T13:57:07;101427.78;;;19.05;100.00
54308;BME280;40208;39.778;2.710;2023-04-08T13:59:51;101431.19;;;19.07;100.00
54308;BME280;40208;39.778;2.710;2023-04-08T14:02:36;101431.94;;;19.10;100.00
54308;BME280;40208;39.778;2.710;2023-04-08T14:05:21;101420.66;;;19.04;97.82
54308;BME280;40208;39.778;2.710;2023-04-08T14:08:05;101420.66;;;19.04;100.00
54308;BME280;40208;39.778;2.710;2023-04-08T14:10:50;101419.38;;;19.10;100.00
54308;BME280;40208;39.778;2.710;2023-04-08T14:13:35;101419.16;;;19.13;100.00
54308;BME280;40208;39.778;2.710;2023-04-08T14:16:19;101415.16;;;19.19;100.00
54308;BME280;40208;39.778;2.710;2023-04-08T14:19:04;101407.63;;;19.24;100.00
54308;BME280;40208;39.778;2.710;2023-04-08T14:21:49;101423.13;;;19.20;100.00
54308;BME280;40208;39.778;2.710;2023-04-08T14:24:34;101416.25;;;19.16;100.00
54308;BME280;40208;39.778;2.710;2023-04-08T14:27:18;101415.38;;;19.16;100.00
54308;BME280;40208;39.778;2.710;2023-04-08T14:30:03;101430.44;;;19.18;100.00
54308;BME280;40208;39.778;2.710;2023-04-08T14:32:47;101425.69;;;19.22;100.00